Meteo Giornale » Osservazioni meteo Stati Uniti (USA) » Jamestown
ore: 16:56 - Osservazioni Meteo Jamestown
Lat. 42° 9' N Lon. 79° 16' W Alt. 525 metri s.l.m.
23 °C
Coperto
Temp. 24 Ore
17 °C
24 °C
Ovest/Nord-Ovest
7.4 Km/h
Dew point 22 °C
Umidità 94 %
Visibilità 10 Km
Il sole sorge alle ore 06:41
Il sole tramonta alle ore 19:52
| Data e Ora | Cielo e Fenomeni | T °C | DP °C | Um. % | Pres. hPa | Vis. km | Vento km/h | |
|---|---|---|---|---|---|---|---|---|
| Oggi h: 16:56 | Coperto | 23 | 22 | 94 | 1019 | 10 | O/NO 7.4 | |
| Oggi h: 15:56 | Molto Nuvoloso | 24 | 21 | 83 | 1019 | 10 | O/NO 14.8 | |
| Oggi h: 14:56 | Coperto | 24 | 22 | 88 | 1020 | 10 | O/SO 11.1 | |
| Oggi h: 13:56 | Molto Nuvoloso | 24 | 22 | 88 | 1020 | 10 | O 11.1 | |
| Oggi h: 12:56 | Nuvoloso | 22 | 21 | 94 | 1020 | 10 | S 13 | |
| Oggi h: 11:56 | Nuvoloso | 21 | 21 | 100 | 1020 | 10 | S 9.3 | |
| Oggi h: 10:56 | Coperto | 19 | 19 | 100 | 1020 | 10 | S 13 | |
| Oggi h: 09:56 | Coperto | 18 | 0 | 29 | 1020 | 10 | S 13 | |
| Oggi h: 09:23 | Coperto | 17 | 17 | 100 | 1020 | 10 | S 11.1 | |
| Oggi h: 08:56 | Pioggia | 17 | 0 | 31 | 1020 | 5 | S 11.1 | |
| Oggi h: 08:49 | Pioggia | 17 | 0 | 31 | 1020 | 3 | S 9.3 | |
| Oggi h: 08:42 | Pioggia | 17 | 0 | 31 | 1020 | 5 | S 11.1 | |
| Oggi h: 08:23 | Pioggia | 17 | 0 | 31 | 1020 | 8 | S 14.8 | |
| Oggi h: 08:08 | Pioggia | 17 | 0 | 31 | 1020 | 6 | S/SE 13 | |
| Oggi h: 07:56 | Pioggia Foschia | 17 | 17 | 100 | 1020 | 3 | S 9.3 | |
| Oggi h: 06:56 | Pioggia | 17 | 0 | 31 | 1020 | 10 | S 7.4 | |
| Oggi h: 06:44 | Foschia | 17 | 0 | 31 | 1020 | 8 | S 11.1 | |
| Oggi h: 05:56 | Molto Nuvoloso | 17 | 0 | 31 | 1020 | 14 | N 5.5 | |
| Oggi h: 04:56 | Foschia | 17 | 0 | 31 | 1020 | 6 | N 0 | |
| Oggi h: 04:49 | Foschia | 17 | 0 | 31 | 1020 | 6 | N 0 | |
| Oggi h: 04:38 | Foschia | 17 | 0 | 31 | 1020 | 2 | N 5.5 | |
| Oggi h: 03:56 | Coperto | 17 | 0 | 31 | 1021 | 13 | S/SO 13 | |
| Oggi h: 02:56 | Coperto | 17 | 17 | 100 | 1021 | 10 | S/SO 11.1 | |
| Oggi h: 02:05 | Pioggia Foschia | 17 | 17 | 100 | 1021 | 8 | S 9.3 | |
| Oggi h: 01:56 | Pioggia Foschia | 17 | 17 | 100 | 1021 | 6 | S/SO 9.3 | |
| Oggi h: 01:43 | Coperto | 17 | 17 | 100 | 1021 | 11 | S 7.4 | |
| Oggi h: 01:20 | Pioggia | 17 | 17 | 100 | 1021 | 11 | S/SO 7.4 | |
| Oggi h: 00:56 | Nuvoloso | 17 | 17 | 100 | 1021 | 11 | S/SO 7.4 | |
| Oggi h: 00:36 | Pioggia | 17 | 17 | 100 | 1021 | 11 | S/SO 9.3 | |
| Oggi h: 00:29 | Pioggia Foschia | 17 | 17 | 100 | 1021 | 3 | S/SO 9.3 | |
| Oggi h: 00:27 | Pioggia Foschia | 17 | 17 | 100 | 1021 | 2 | S/SO 11.1 | |
| Oggi h: 00:20 | Pioggia Nebbia | 17 | 17 | 100 | 1021 | 2 | S/SO 7.4 | |
| Oggi h: 00:12 | Pioggia Foschia | 17 | 17 | 100 | 1021 | 5 | S 7.4 | |
| Oggi h: 00:08 | Pioggia Foschia | 17 | 17 | 100 | 1021 | 5 | S 7.4 | |
| Ieri h: 23:56 | Pioggia | 17 | 0 | 31 | 1021 | 5 | N 5.5 | |
| Ieri h: 22:56 | Foschia | 17 | 0 | 31 | 1022 | 10 | N 5.5 | |
| Ieri h: 22:34 | Foschia | 17 | 0 | 31 | 1022 | 10 | N 0 | |
| Ieri h: 21:56 | Pioggia | 17 | 0 | 31 | 1022 | 11 | N 0 | |
| Ieri h: 20:56 | Pioggia | 18 | 18 | 100 | 1022 | 10 | N 0 | |
| Ieri h: 19:56 | Coperto | 18 | 18 | 100 | 1021 | 10 | N 0 | |
| Ieri h: 18:56 | Molto Nuvoloso | 18 | 18 | 100 | 1021 | 10 | N 0 | |
| Ieri h: 17:56 | Pioggia | 18 | 18 | 100 | 1020 | 14 | N 0 | |
| Ieri h: 17:38 | Pioggia | 18 | 18 | 100 | 1021 | 10 | N 0 | |



